createdAt,value
2023-03-12T00:00:08.409Z,95472.49
2023-03-12T00:02:56.019Z,95470.59
2023-03-12T00:05:25.356Z,95478.59
2023-03-12T00:07:52.900Z,95483.98
2023-03-12T00:10:20.651Z,95490.15
2023-03-12T00:12:47.367Z,95492.11
2023-03-12T00:15:14.033Z,95497.55
2023-03-12T00:17:40.669Z,95493.39
2023-03-12T00:20:07.717Z,95498.08
2023-03-12T00:22:34.285Z,95496.67
2023-03-12T00:25:01.519Z,95499.52
2023-03-12T00:27:28.397Z,95502.83
2023-03-12T00:29:55.227Z,95501.78
2023-03-12T00:32:22.555Z,95495.70
2023-03-12T00:34:54.023Z,95503.02
2023-03-12T00:37:21.647Z,95502.29
2023-03-12T00:39:48.310Z,95503.45
2023-03-12T00:42:15.071Z,95509.81
2023-03-12T00:44:42.910Z,95511.09
2023-03-12T00:47:10.345Z,95517.92
2023-03-12T00:49:37.409Z,95520.39
2023-03-12T00:52:05.277Z,95526.85
2023-03-12T00:54:32.325Z,95527.85
2023-03-12T00:56:58.960Z,95531.48
2023-03-12T00:59:25.808Z,95534.39
2023-03-12T01:01:52.316Z,95538.80
2023-03-12T01:04:18.986Z,95537.67
2023-03-12T01:06:45.768Z,95542.21
2023-03-12T01:09:12.491Z,95542.29
2023-03-12T01:11:39.122Z,95546.58
2023-03-12T01:14:08.236Z,95548.55
2023-03-12T01:16:35.092Z,95551.38
2023-03-12T01:19:03.351Z,95553.08
2023-03-12T01:21:30.489Z,95559.17
2023-03-12T01:23:57.462Z,95563.12
2023-03-12T01:26:24.325Z,95562.95
2023-03-12T01:28:51.350Z,95568.63
2023-03-12T01:31:18.906Z,95578.42
2023-03-12T01:33:50.912Z,95583.04
2023-03-12T01:36:26.444Z,95583.49
2023-03-12T01:38:57.266Z,95580.52
2023-03-12T01:41:26.848Z,95582.56
2023-03-12T01:43:53.609Z,95579.84
2023-03-12T01:46:29.127Z,95583.65
2023-03-12T01:48:56.568Z,95587.58
2023-03-12T01:51:27.278Z,95588.03
2023-03-12T01:53:57.746Z,95588.42
2023-03-12T01:56:27.641Z,95588.17
2023-03-12T01:58:56.919Z,95594.00
2023-03-12T02:01:24.947Z,95601.91
2023-03-12T02:03:55.428Z,95608.96
2023-03-12T02:06:30.072Z,95613.56
2023-03-12T02:08:59.972Z,95616.29
2023-03-12T02:11:26.725Z,95620.50
2023-03-12T02:13:53.866Z,95625.29
2023-03-12T02:16:20.718Z,95628.25
2023-03-12T02:18:50.314Z,95634.62
2023-03-12T02:21:26.893Z,95632.97
2023-03-12T02:24:07.856Z,95637.46
2023-03-12T02:26:37.174Z,95646.75
2023-03-12T02:29:04.953Z,95655.27
2023-03-12T02:31:38.500Z,95652.80
2023-03-12T02:34:05.456Z,95662.47
2023-03-12T02:36:32.239Z,95660.73
2023-03-12T02:38:59.120Z,95668.29
2023-03-12T02:41:50.483Z,95670.42
2023-03-12T02:44:29.816Z,95674.59
2023-03-12T02:46:59.620Z,95675.05
2023-03-12T02:49:30.804Z,95674.19
2023-03-12T02:51:59.461Z,95682.11
2023-03-12T02:54:27.223Z,95686.00
2023-03-12T02:56:54.408Z,95688.16
2023-03-12T02:59:25.515Z,95687.84
2023-03-12T03:01:58.715Z,95692.06
2023-03-12T03:04:27.474Z,95700.48
2023-03-12T03:06:54.571Z,95701.10
2023-03-12T03:09:21.927Z,95706.30
2023-03-12T03:11:49.555Z,95710.54
2023-03-12T03:14:17.123Z,95716.14
2023-03-12T03:16:44.557Z,95721.80
2023-03-12T03:19:11.193Z,95722.51
2023-03-12T03:21:37.953Z,95723.94
2023-03-12T03:24:05.627Z,95733.81
2023-03-12T03:26:32.272Z,95739.80
2023-03-12T03:28:58.958Z,95747.52
2023-03-12T03:31:25.830Z,95748.11
2023-03-12T03:33:52.824Z,95756.59
2023-03-12T03:36:19.726Z,95755.80
2023-03-12T03:38:53.464Z,95760.73
2023-03-12T03:41:20.768Z,95760.42
2023-03-12T03:43:47.504Z,95762.98
2023-03-12T03:46:15.830Z,95766.23
2023-03-12T03:48:44.464Z,95773.70
2023-03-12T03:51:12.048Z,95773.92
2023-03-12T03:53:41.322Z,95771.45
2023-03-12T03:56:11.163Z,95775.23
2023-03-12T03:58:39.541Z,95780.18
2023-03-12T04:01:06.438Z,95785.42
2023-03-12T04:03:34.068Z,95793.04
2023-03-12T04:06:04.453Z,95793.23
2023-03-12T04:08:34.804Z,95798.02
2023-03-12T04:11:09.987Z,95808.10
2023-03-12T04:13:37.562Z,95813.91
2023-03-12T04:16:05.090Z,95814.02
2023-03-12T04:18:35.449Z,95824.61
2023-03-12T04:21:04.177Z,95827.17
2023-03-12T04:23:31.657Z,95827.16
2023-03-12T04:25:58.560Z,95819.94
2023-03-12T04:28:25.282Z,95821.86
2023-03-12T04:31:01.831Z,95832.12
2023-03-12T04:33:38.187Z,95839.41
2023-03-12T04:36:06.397Z,95842.73
2023-03-12T04:38:34.186Z,95845.23
2023-03-12T04:41:07.408Z,95853.96
2023-03-12T04:43:35.197Z,95864.59
2023-03-12T04:46:05.576Z,95865.94
2023-03-12T04:48:33.123Z,95872.42
2023-03-12T04:50:59.707Z,95876.10
2023-03-12T04:53:26.759Z,95880.23
2023-03-12T04:55:53.576Z,95884.27
2023-03-12T04:58:21.301Z,95890.86
2023-03-12T05:00:49.305Z,95889.09
2023-03-12T05:03:16.984Z,95894.99
2023-03-12T05:05:44.959Z,95896.92
2023-03-12T05:08:12.074Z,95896.77
2023-03-12T05:10:38.960Z,95895.02
2023-03-12T05:13:17.231Z,95900.91
2023-03-12T05:15:44.736Z,95906.92
2023-03-12T05:18:11.461Z,95914.24
2023-03-12T05:20:38.372Z,95921.68
2023-03-12T05:23:05.356Z,95925.40
2023-03-12T05:25:32.201Z,95926.29
2023-03-12T05:27:58.929Z,95934.90
2023-03-12T05:30:25.634Z,95944.79
2023-03-12T05:32:52.512Z,95938.40
2023-03-12T05:35:19.406Z,95932.94
2023-03-12T05:37:46.241Z,95939.41
2023-03-12T05:40:13.462Z,95945.70
2023-03-12T05:42:40.894Z,95957.05
2023-03-12T05:45:08.672Z,95958.92
2023-03-12T05:47:36.169Z,95962.95
2023-03-12T05:50:03.033Z,95966.14
2023-03-12T05:52:30.259Z,95971.40
2023-03-12T05:54:57.224Z,95976.18
2023-03-12T05:57:23.977Z,95969.21
2023-03-12T05:59:51.527Z,95975.90
2023-03-12T06:02:19.576Z,95982.97
2023-03-12T06:04:46.309Z,95988.66
2023-03-12T06:07:13.301Z,95990.19
2023-03-12T06:09:41.276Z,95996.73
2023-03-12T06:12:08.107Z,95996.20
2023-03-12T06:14:35.294Z,95998.86
2023-03-12T06:17:02.132Z,95998.71
2023-03-12T06:19:28.832Z,96001.58
2023-03-12T06:21:55.493Z,96011.35
2023-03-12T06:24:22.281Z,96016.69
2023-03-12T06:26:54.337Z,96023.48
2023-03-12T06:29:20.948Z,96030.33
2023-03-12T06:31:47.870Z,96029.95
2023-03-12T06:34:16.201Z,96036.48
2023-03-12T06:36:43.038Z,96043.16
2023-03-12T06:39:09.749Z,96049.20
2023-03-12T06:41:36.996Z,96051.15
2023-03-12T06:44:05.579Z,96056.20
2023-03-12T06:46:32.766Z,96065.83
2023-03-12T06:48:59.441Z,96067.70
2023-03-12T06:51:26.255Z,96067.84
2023-03-12T06:53:52.936Z,96075.33
2023-03-12T06:56:19.601Z,96074.48
2023-03-12T06:58:46.432Z,96076.48
2023-03-12T07:01:13.066Z,96080.19
2023-03-12T07:03:39.704Z,96088.93
2023-03-12T07:06:14.337Z,96077.51
2023-03-12T07:08:41.303Z,96080.12
2023-03-12T07:11:08.696Z,96080.79
2023-03-12T07:13:35.481Z,96083.00
2023-03-12T07:16:03.157Z,96088.30
2023-03-12T07:18:29.883Z,96091.55
2023-03-12T07:20:56.812Z,96101.87
2023-03-12T07:23:23.694Z,96103.72
2023-03-12T07:25:50.856Z,96113.71
2023-03-12T07:28:18.889Z,96116.74
2023-03-12T07:30:52.144Z,96115.48
2023-03-12T07:33:21.128Z,96111.77
2023-03-12T07:35:51.491Z,96107.63
2023-03-12T07:38:18.930Z,96110.60
2023-03-12T07:40:51.431Z,96111.05
2023-03-12T07:43:20.496Z,96111.73
2023-03-12T07:45:50.036Z,96122.66
2023-03-12T07:48:19.156Z,96126.55
2023-03-12T07:50:46.162Z,96123.33
2023-03-12T07:53:12.805Z,96125.04
2023-03-12T07:55:39.587Z,96123.39
2023-03-12T07:58:06.558Z,96128.86
2023-03-12T08:00:33.188Z,96133.79
2023-03-12T08:03:00.100Z,96146.90
2023-03-12T08:05:27.217Z,96149.30
2023-03-12T08:07:54.809Z,96142.98
2023-03-12T08:10:22.028Z,96135.51
2023-03-12T08:12:49.426Z,96127.80
2023-03-12T08:15:16.231Z,96127.80
2023-03-12T08:17:43.173Z,96134.81
2023-03-12T08:20:11.252Z,96140.98
2023-03-12T08:22:38.524Z,96135.30
2023-03-12T08:25:06.409Z,96145.38
2023-03-12T08:27:33.487Z,96149.60
2023-03-12T08:30:00.408Z,96153.88
2023-03-12T08:32:27.900Z,96162.69
2023-03-12T08:34:54.564Z,96160.16
2023-03-12T08:37:22.630Z,96154.48
2023-03-12T08:39:49.386Z,96155.60
2023-03-12T08:42:16.181Z,96153.85
2023-03-12T08:44:42.855Z,96158.15
2023-03-12T08:47:09.699Z,96172.20
2023-03-12T08:49:36.287Z,96181.30
2023-03-12T08:52:03.187Z,96182.14
2023-03-12T08:54:30.021Z,96188.92
2023-03-12T08:56:56.659Z,96190.51
2023-03-12T08:59:23.321Z,96193.15
2023-03-12T09:01:50.762Z,96197.47
2023-03-12T09:04:17.953Z,96203.40
2023-03-12T09:06:44.961Z,96201.01
2023-03-12T09:09:12.210Z,96208.38
2023-03-12T09:11:39.356Z,96213.14
2023-03-12T09:16:53.147Z,96226.92
2023-03-12T09:19:20.682Z,96224.67
2023-03-12T09:21:47.555Z,96226.20
2023-03-12T09:24:14.282Z,96226.39
2023-03-12T09:26:40.873Z,96230.67
2023-03-12T09:29:07.539Z,96228.30
2023-03-12T09:31:35.842Z,96235.73
2023-03-12T09:34:04.193Z,96226.92
2023-03-12T09:36:31.336Z,96225.92
2023-03-12T09:38:58.298Z,96219.55
2023-03-12T09:41:28.700Z,96220.77
2023-03-12T09:44:28.528Z,96227.31
2023-03-12T09:47:00.357Z,96228.42
2023-03-12T09:49:48.289Z,96238.04
2023-03-12T09:52:23.973Z,96237.48
2023-03-12T09:55:06.598Z,96239.67
2023-03-12T09:57:34.074Z,96234.84
2023-03-12T10:00:01.303Z,96234.70
2023-03-12T10:03:07.449Z,96233.64
2023-03-12T10:05:43.729Z,96240.17
2023-03-12T10:08:28.193Z,96239.52
2023-03-12T10:11:21.347Z,96239.05
2023-03-12T10:14:07.736Z,96240.86
2023-03-12T10:17:06.751Z,96240.04
2023-03-12T10:19:33.269Z,96246.48
2023-03-12T10:22:22.752Z,96249.73
2023-03-12T10:25:21.351Z,96245.41
2023-03-12T10:27:48.296Z,96241.89
2023-03-12T10:30:26.381Z,96248.23
2023-03-12T10:33:00.641Z,96246.41
2023-03-12T10:35:32.180Z,96244.55
2023-03-12T10:38:01.381Z,96239.94
2023-03-12T10:40:35.257Z,96244.32
2023-03-12T10:43:03.274Z,96242.59
2023-03-12T10:45:43.454Z,96241.54
2023-03-12T10:48:18.394Z,96245.48
2023-03-12T10:51:00.838Z,96248.61
2023-03-12T10:53:31.369Z,96245.59
2023-03-12T10:56:08.681Z,96242.03
2023-03-12T10:58:50.343Z,96245.95
2023-03-12T11:01:27.370Z,96249.52
2023-03-12T11:04:14.538Z,96241.52
2023-03-12T11:06:41.375Z,96242.95
2023-03-12T11:09:19.325Z,96241.33
2023-03-12T11:11:48.524Z,96238.05
2023-03-12T11:14:24.572Z,96242.03
2023-03-12T11:16:53.143Z,96245.13
2023-03-12T11:19:32.361Z,96239.90
2023-03-12T11:22:04.960Z,96243.31
2023-03-12T11:24:31.688Z,96243.77
2023-03-12T11:27:19.513Z,96241.91
2023-03-12T11:29:49.829Z,96251.42
2023-03-12T11:32:19.529Z,96244.91
2023-03-12T11:34:49.494Z,96241.20
2023-03-12T11:37:25.452Z,96241.86
2023-03-12T11:40:20.373Z,96239.77
2023-03-12T11:43:02.112Z,96245.36
2023-03-12T11:45:34.486Z,96244.59
2023-03-12T11:48:25.550Z,96239.50
2023-03-12T11:51:00.703Z,96242.23
2023-03-12T11:53:30.494Z,96235.59
2023-03-12T11:56:12.871Z,96236.00
2023-03-12T11:58:52.298Z,96237.69
2023-03-12T12:01:48.235Z,96244.56
2023-03-12T12:04:33.725Z,96237.25
2023-03-12T12:07:09.505Z,96226.48
2023-03-12T12:09:39.164Z,96232.74
2023-03-12T12:12:24.430Z,96226.32
2023-03-12T12:15:13.822Z,96233.19
2023-03-12T12:17:41.174Z,96237.01
2023-03-12T12:20:16.462Z,96247.35
2023-03-12T12:23:06.750Z,96247.70
2023-03-12T12:25:57.222Z,96249.25
2023-03-12T12:28:56.144Z,96250.35
2023-03-12T12:31:32.743Z,96251.48
2023-03-12T12:34:26.209Z,96252.19
2023-03-12T12:37:18.405Z,96255.04
2023-03-12T12:40:08.161Z,96255.14
2023-03-12T12:42:45.622Z,96258.14
2023-03-12T12:45:15.003Z,96265.77
2023-03-12T12:47:55.041Z,96263.59
2023-03-12T12:50:26.557Z,96259.63
2023-03-12T12:53:17.316Z,96262.53
2023-03-12T12:56:30.514Z,96261.85
2023-03-12T12:59:24.597Z,96266.23
2023-03-12T13:01:55.324Z,96264.30
2023-03-12T13:04:33.889Z,96266.01
2023-03-12T13:07:12.383Z,96268.63
2023-03-12T13:09:44.898Z,96267.59
2023-03-12T13:12:14.378Z,96274.39
2023-03-12T13:14:43.476Z,96278.67
2023-03-12T13:17:26.726Z,96280.02
2023-03-12T13:20:01.747Z,96284.65
2023-03-12T13:22:34.728Z,96275.27
2023-03-12T13:25:04.704Z,96283.80
2023-03-12T13:27:38.003Z,96281.09
2023-03-12T13:30:32.636Z,96283.57
2023-03-12T13:33:01.148Z,96281.44
2023-03-12T13:35:36.673Z,96289.16
2023-03-12T13:38:05.148Z,96287.70
2023-03-12T13:40:31.840Z,96287.14
2023-03-12T13:43:07.375Z,96286.06
2023-03-12T13:45:39.716Z,96287.23
2023-03-12T13:48:19.818Z,96293.72
2023-03-12T13:50:56.511Z,96301.51
2023-03-12T13:53:27.308Z,96301.45
2023-03-12T13:56:16.447Z,96306.30
2023-03-12T13:58:56.615Z,96308.91
2023-03-12T14:01:31.401Z,96317.95
2023-03-12T14:04:06.306Z,96319.80
2023-03-12T14:06:58.175Z,96325.65
2023-03-12T14:09:51.438Z,96323.86
2023-03-12T14:12:39.315Z,96327.60
2023-03-12T14:15:28.946Z,96328.85
2023-03-12T14:18:00.464Z,96328.85
2023-03-12T14:20:29.183Z,96330.05
2023-03-12T14:23:05.234Z,96333.77
2023-03-12T14:25:31.937Z,96338.73
2023-03-12T14:27:59.247Z,96339.20
2023-03-12T14:30:33.180Z,96345.79
2023-03-12T14:33:02.385Z,96342.27
2023-03-12T14:35:37.026Z,96349.30
2023-03-12T14:38:24.634Z,96350.45
2023-03-12T14:41:06.350Z,96354.05
2023-03-12T14:43:34.490Z,96346.52
2023-03-12T14:46:05.459Z,96349.64
2023-03-12T14:48:35.351Z,96354.44
2023-03-12T14:51:05.053Z,96353.23
2023-03-12T14:53:35.033Z,96359.55
2023-03-12T14:56:24.362Z,96358.92
2023-03-12T14:58:52.119Z,96359.46
2023-03-12T15:01:25.590Z,96359.48
2023-03-12T15:03:57.982Z,96355.91
2023-03-12T15:06:30.367Z,96356.09
2023-03-12T15:08:59.098Z,96359.35
2023-03-12T15:11:27.947Z,96358.49
2023-03-12T15:14:01.049Z,96365.58
2023-03-12T15:16:28.060Z,96370.09
2023-03-12T15:18:55.866Z,96374.45
2023-03-12T15:21:23.403Z,96373.14
2023-03-12T15:23:50.354Z,96373.45
2023-03-12T15:26:19.949Z,96374.86
2023-03-12T15:29:01.751Z,96372.33
2023-03-12T15:31:42.292Z,96382.01
2023-03-12T15:34:12.439Z,96382.65
2023-03-12T15:36:46.911Z,96387.20
2023-03-12T15:39:25.928Z,96387.55
2023-03-12T15:41:54.589Z,96391.75
2023-03-12T15:44:44.766Z,96392.63
2023-03-12T15:47:16.728Z,96397.61
2023-03-12T15:49:48.170Z,96400.55
2023-03-12T15:52:17.881Z,96400.98
2023-03-12T15:55:03.878Z,96404.20
2023-03-12T15:57:33.549Z,96407.65
2023-03-12T16:00:11.591Z,96412.05
2023-03-12T16:02:56.560Z,96410.03
2023-03-12T16:05:32.755Z,96425.33
2023-03-12T16:08:13.701Z,96427.95
2023-03-12T16:10:40.949Z,96431.70
2023-03-12T16:13:13.766Z,96435.20
2023-03-12T16:15:40.775Z,96440.41
2023-03-12T16:18:15.793Z,96445.75
2023-03-12T16:20:43.440Z,96448.71
2023-03-12T16:23:10.216Z,96453.24
2023-03-12T16:25:38.090Z,96455.85
2023-03-12T16:28:06.164Z,96459.84
2023-03-12T16:30:36.018Z,96463.74
2023-03-12T16:33:08.652Z,96464.36
2023-03-12T16:35:35.727Z,96468.29
2023-03-12T16:38:03.482Z,96475.39
2023-03-12T16:40:34.112Z,96477.28
2023-03-12T16:43:05.281Z,96483.27
2023-03-12T16:45:35.549Z,96484.15
2023-03-12T16:48:06.185Z,96486.96
2023-03-12T16:50:32.896Z,96491.48
2023-03-12T16:53:02.587Z,96487.29
2023-03-12T16:55:31.997Z,96493.96
2023-03-12T16:58:00.739Z,96497.59
2023-03-12T17:00:30.263Z,96504.27
2023-03-12T17:02:58.091Z,96507.08
2023-03-12T17:05:27.236Z,96511.13
2023-03-12T17:07:54.760Z,96513.16
2023-03-12T17:10:22.029Z,96512.36
2023-03-12T17:12:49.463Z,96519.50
2023-03-12T17:15:30.131Z,96529.27
2023-03-12T17:17:59.001Z,96534.40
2023-03-12T17:20:25.888Z,96535.88
2023-03-12T17:22:52.625Z,96541.31
2023-03-12T17:25:24.249Z,96545.82
2023-03-12T17:27:51.718Z,96546.22
2023-03-12T17:30:20.176Z,96555.50
2023-03-12T17:32:47.087Z,96553.44
2023-03-12T17:35:13.979Z,96556.67
2023-03-12T17:37:40.830Z,96565.65
2023-03-12T17:40:09.355Z,96562.69
2023-03-12T17:42:37.888Z,96568.79
2023-03-12T17:45:06.695Z,96570.66
2023-03-12T17:47:34.240Z,96575.73
2023-03-12T17:50:01.533Z,96580.10
2023-03-12T17:52:28.953Z,96583.85
2023-03-12T17:54:55.802Z,96585.77
2023-03-12T17:57:24.333Z,96587.02
2023-03-12T17:59:51.146Z,96596.88
2023-03-12T18:02:18.171Z,96604.64
2023-03-12T18:04:45.026Z,96608.39
2023-03-12T18:07:12.158Z,96612.27
2023-03-12T18:09:39.271Z,96611.52
2023-03-12T18:12:06.266Z,96615.91
2023-03-12T18:14:33.122Z,96620.73
2023-03-12T18:16:59.740Z,96620.05
2023-03-12T18:19:26.586Z,96622.46
2023-03-12T18:21:53.417Z,96631.66
2023-03-12T18:24:20.056Z,96636.14
2023-03-12T18:26:48.957Z,96629.80
2023-03-12T18:29:15.588Z,96639.84
2023-03-12T18:31:42.381Z,96637.08
2023-03-12T18:34:09.281Z,96636.95
2023-03-12T18:36:35.925Z,96640.02
2023-03-12T18:39:04.517Z,96645.04
2023-03-12T18:41:32.377Z,96646.92
2023-03-12T18:43:59.734Z,96647.97
2023-03-12T18:46:27.754Z,96654.60
2023-03-12T18:48:54.642Z,96659.79
2023-03-12T18:51:21.514Z,96666.79
2023-03-12T18:53:48.311Z,96667.02
2023-03-12T18:56:15.077Z,96676.25
2023-03-12T18:58:42.151Z,96676.86
2023-03-12T19:01:08.925Z,96678.77
2023-03-12T19:03:35.810Z,96681.29
2023-03-12T19:06:06.952Z,96682.41
2023-03-12T19:08:36.563Z,96681.40
2023-03-12T19:11:09.168Z,96688.23
2023-03-12T19:13:36.079Z,96694.02
2023-03-12T19:16:07.753Z,96698.55
2023-03-12T19:18:37.236Z,96695.84
2023-03-12T19:21:06.777Z,96703.27
2023-03-12T19:23:33.476Z,96703.25
2023-03-12T19:26:00.058Z,96706.04
2023-03-12T19:28:26.760Z,96708.76
2023-03-12T19:31:00.079Z,96711.15
2023-03-12T19:33:28.183Z,96713.77
2023-03-12T19:35:55.466Z,96709.54
2023-03-12T19:38:22.904Z,96703.82
2023-03-12T19:40:50.602Z,96704.36
2023-03-12T19:43:18.213Z,96708.41
2023-03-12T19:45:45.328Z,96711.23
2023-03-12T19:48:13.372Z,96723.23
2023-03-12T19:50:40.649Z,96715.33
2023-03-12T19:53:07.678Z,96718.31
2023-03-12T19:55:34.209Z,96719.70
2023-03-12T19:58:01.019Z,96721.83
2023-03-12T20:00:28.987Z,96722.79
2023-03-12T20:02:55.989Z,96726.45
2023-03-12T20:05:22.801Z,96724.91
2023-03-12T20:07:49.384Z,96719.36
2023-03-12T20:10:16.197Z,96716.63
2023-03-12T20:12:43.039Z,96716.15
2023-03-12T20:15:09.815Z,96719.03
2023-03-12T20:17:36.411Z,96717.10
2023-03-12T20:20:05.717Z,96723.21
2023-03-12T20:22:35.617Z,96723.61
2023-03-12T20:25:05.030Z,96723.96
2023-03-12T20:27:33.697Z,96723.20
2023-03-12T20:30:00.548Z,96728.31
2023-03-12T20:32:28.245Z,96726.86
2023-03-12T20:34:55.873Z,96729.23
2023-03-12T20:37:22.824Z,96733.17
2023-03-12T20:39:49.472Z,96735.30
2023-03-12T20:42:16.207Z,96732.64
2023-03-12T20:44:42.946Z,96731.73
2023-03-12T20:47:09.919Z,96734.85
2023-03-12T20:49:36.776Z,96734.84
2023-03-12T20:52:03.506Z,96734.79
2023-03-12T20:54:30.230Z,96735.23
2023-03-12T20:56:56.866Z,96735.86
2023-03-12T20:59:23.829Z,96733.31
2023-03-12T21:01:50.448Z,96738.45
2023-03-12T21:04:17.434Z,96743.82
2023-03-12T21:06:44.649Z,96748.70
2023-03-12T21:09:11.393Z,96753.65
2023-03-12T21:11:39.557Z,96758.90
2023-03-12T21:14:06.209Z,96757.38
2023-03-12T21:16:33.154Z,96757.42
2023-03-12T21:19:00.197Z,96756.30
2023-03-12T21:21:26.938Z,96754.39
2023-03-12T21:23:53.590Z,96755.52
2023-03-12T21:26:21.434Z,96754.94
2023-03-12T21:28:48.072Z,96751.73
2023-03-12T21:31:16.485Z,96758.18
2023-03-12T21:33:43.736Z,96756.33
2023-03-12T21:36:13.009Z,96755.08
2023-03-12T21:38:42.305Z,96755.42
2023-03-12T21:41:14.323Z,96750.13
2023-03-12T21:43:41.829Z,96757.14
2023-03-12T21:46:13.924Z,96760.42
2023-03-12T21:48:44.243Z,96764.06
2023-03-12T21:51:13.198Z,96763.04
2023-03-12T21:53:40.351Z,96762.53
2023-03-12T21:56:08.034Z,96767.27
2023-03-12T21:58:35.480Z,96763.92
2023-03-12T22:01:06.178Z,96767.24
2023-03-12T22:03:33.640Z,96766.14
2023-03-12T22:06:00.717Z,96766.59
2023-03-12T22:08:27.359Z,96767.90
2023-03-12T22:10:54.060Z,96765.34
2023-03-12T22:13:20.894Z,96765.45
2023-03-12T22:15:56.200Z,96765.13
2023-03-12T22:18:23.637Z,96765.67
2023-03-12T22:20:55.835Z,96769.08
2023-03-12T22:23:23.478Z,96773.89
2023-03-12T22:25:50.521Z,96772.55
2023-03-12T22:28:17.787Z,96772.96
2023-03-12T22:30:45.118Z,96773.77
2023-03-12T22:33:12.593Z,96774.23
2023-03-12T22:35:47.815Z,96775.87
2023-03-12T22:38:15.064Z,96774.04
2023-03-12T22:40:42.108Z,96775.41
2023-03-12T22:43:08.996Z,96774.63
2023-03-12T22:45:35.919Z,96766.48
2023-03-12T22:48:02.973Z,96760.04
2023-03-12T22:50:29.865Z,96760.56
2023-03-12T22:52:56.737Z,96766.28
2023-03-12T22:55:23.794Z,96763.98
2023-03-12T22:57:50.512Z,96759.51
2023-03-12T23:00:23.424Z,96761.44
2023-03-12T23:02:50.342Z,96761.96
2023-03-12T23:05:17.238Z,96764.84
2023-03-12T23:07:44.151Z,96769.54
2023-03-12T23:10:11.198Z,96779.20
2023-03-12T23:12:37.962Z,96783.11
2023-03-12T23:15:06.112Z,96785.67
2023-03-12T23:17:32.763Z,96783.36
2023-03-12T23:19:59.490Z,96779.48
2023-03-12T23:22:26.318Z,96772.90
2023-03-12T23:24:52.966Z,96776.86
2023-03-12T23:27:19.914Z,96784.96
2023-03-12T23:29:46.647Z,96794.17
2023-03-12T23:32:13.289Z,96804.23
2023-03-12T23:34:40.045Z,96813.54
2023-03-12T23:37:06.999Z,96814.95
2023-03-12T23:39:42.003Z,96813.13
2023-03-12T23:42:15.218Z,96807.02
2023-03-12T23:44:41.755Z,96806.33
2023-03-12T23:47:08.497Z,96800.66
2023-03-12T23:49:35.148Z,96806.61
2023-03-12T23:52:01.768Z,96813.17
2023-03-12T23:54:28.610Z,96814.31
2023-03-12T23:56:55.857Z,96812.02
2023-03-12T23:59:22.596Z,96807.27
